Time;durP1;ratioP1;P1;durP2;ratioP2;P2;SDS_P1;SDS_P2;PMS_P1;PMS_P2;Temp;Humidity;BMP_temperature;BMP_pressure;BME280_temperature;BME280_humidity;BME280_pressure;Samples;Min_cycle;Max_cycle;Signal;HPM_P1;HPM_P2
2021/11/17 02:27:28;;;;;;;25.98;18.33;;;;;;;;;;5029888;28;20063;-74
2021/11/17 02:29:59;;;;;;;23.73;17.27;;;;;;;;;;5029826;28;20033;-76
2021/11/17 02:32:29;;;;;;;23.65;18.33;;;;;;;;;;5052173;28;20128;-73
2021/11/17 02:35:01;;;;;;;24.35;16.63;;;;;;;;;;5091911;28;20063;-71
2021/11/17 02:37:36;;;;;;;23.20;17.42;;;;;;;;;;5099040;28;20035;-70
2021/11/17 02:40:14;;;;;;;26.42;17.13;;;;;;;;;;5112323;28;20521;-73
2021/11/17 02:42:40;;;;;;;26.67;18.55;;;;;;;;;;5112861;28;20474;-74
2021/11/17 02:45:15;;;;;;;28.27;18.33;;;;;;;;;;5112631;28;20077;-73
2021/11/17 02:47:50;;;;;;;25.67;16.55;;;;;;;;;;5112570;28;20048;-74
2021/11/17 02:50:29;;;;;;;27.25;17.77;;;;;;;;;;5112317;28;20421;-70
2021/11/17 02:53:10;;;;;;;22.60;16.17;;;;;;;;;;5094211;28;20106;-70
2021/11/17 02:55:36;;;;;;;21.88;14.50;;;;;;;;;;5093714;28;20042;-73
2021/11/17 02:58:08;;;;;;;22.65;16.58;;;;;;;;;;5112367;28;20023;-73
2021/11/17 03:00:34;;;;;;;21.55;15.32;;;;;;;;;;5094063;28;20038;-73
2021/11/17 03:03:27;;;;;;;22.15;15.82;;;;;;;;;;5112321;28;20023;-72
2021/11/17 03:06:02;;;;;;;23.17;16.38;;;;;;;;;;5107653;28;20039;-72
2021/11/17 03:08:34;;;;;;;22.67;15.38;;;;;;;;;;5112216;28;20065;-71
2021/11/17 03:11:00;;;;;;;22.25;15.65;;;;;;;;;;5093951;28;20026;-71
2021/11/17 03:13:26;;;;;;;19.80;14.32;;;;;;;;;;5112075;28;20023;-72
2021/11/17 03:15:59;;;;;;;23.85;15.75;;;;;;;;;;5093750;28;20028;-68
2021/11/17 03:18:28;;;;;;;20.33;13.88;;;;;;;;;;5112166;28;20031;-71
2021/11/17 03:20:57;;;;;;;22.23;14.73;;;;;;;;;;5111984;28;20028;-73
2021/11/17 03:23:55;;;;;;;22.30;15.60;;;;;;;;;;5112033;28;20543;-72
2021/11/17 03:26:30;;;;;;;18.98;13.68;;;;;;;;;;5049704;28;20432;-71
2021/11/17 03:28:56;;;;;;;21.38;13.80;;;;;;;;;;5111952;28;20473;-67
2021/11/17 03:31:32;;;;;;;19.40;13.73;;;;;;;;;;5084183;28;20016;-72
2021/11/17 03:34:07;;;;;;;19.63;14.77;;;;;;;;;;5074269;28;20020;-72
2021/11/17 03:36:46;;;;;;;19.10;13.43;;;;;;;;;;5091528;28;20194;-69
2021/11/17 03:39:38;;;;;;;17.90;12.93;;;;;;;;;;5073403;28;20040;-68
2021/11/17 03:42:19;;;;;;;21.00;13.52;;;;;;;;;;5053141;28;20088;-69
2021/11/17 03:44:55;;;;;;;24.58;15.48;;;;;;;;;;5091577;28;20029;-71
2021/11/17 03:47:21;;;;;;;23.83;15.48;;;;;;;;;;5091510;28;20107;-72
2021/11/17 03:50:07;;;;;;;20.25;13.70;;;;;;;;;;5086420;28;20102;-68
2021/11/17 03:52:34;;;;;;;21.30;14.32;;;;;;;;;;5093416;28;20055;-73
2021/11/17 03:55:12;;;;;;;19.80;15.10;;;;;;;;;;5111626;28;20020;-71
2021/11/17 03:57:38;;;;;;;19.90;14.43;;;;;;;;;;5111709;28;20027;-75
2021/11/17 04:00:17;;;;;;;23.17;16.88;;;;;;;;;;5111541;28;20068;-73
2021/11/17 04:02:46;;;;;;;24.67;17.25;;;;;;;;;;5093420;28;20028;-71
2021/11/17 04:05:12;;;;;;;23.23;16.48;;;;;;;;;;5111738;28;20038;-73
2021/11/17 04:07:38;;;;;;;22.33;15.15;;;;;;;;;;5093679;28;20023;-72
2021/11/17 04:10:23;;;;;;;20.17;14.98;;;;;;;;;;5115474;28;20024;-70
2021/11/17 04:13:07;;;;;;;20.27;14.90;;;;;;;;;;5115605;28;20016;-72
2021/11/17 04:15:33;;;;;;;23.25;15.95;;;;;;;;;;5115741;28;20035;-70
2021/11/17 04:18:06;;;;;;;24.48;16.98;;;;;;;;;;5097372;28;20027;-71
2021/11/17 04:20:35;;;;;;;25.08;17.52;;;;;;;;;;5115624;28;20059;-68
2021/11/17 04:23:04;;;;;;;20.25;14.98;;;;;;;;;;5097058;28;20490;-71
2021/11/17 04:25:30;;;;;;;21.70;15.93;;;;;;;;;;5096851;28;20038;-70
2021/11/17 04:28:11;;;;;;;22.67;15.95;;;;;;;;;;5115066;28;20015;-71
2021/11/17 04:30:40;;;;;;;21.17;15.15;;;;;;;;;;5114956;28;20035;-70
2021/11/17 04:33:15;;;;;;;25.38;16.35;;;;;;;;;;5115371;28;20368;-70
2021/11/17 04:35:54;;;;;;;22.17;15.63;;;;;;;;;;5096803;28;20584;-70
2021/11/17 04:38:23;;;;;;;22.27;14.07;;;;;;;;;;5100123;28;20028;-71
2021/11/17 04:41:07;;;;;;;20.98;15.55;;;;;;;;;;5094425;28;20028;-70
2021/11/17 04:43:46;;;;;;;23.00;15.18;;;;;;;;;;5076364;28;20379;-71
2021/11/17 04:46:24;;;;;;;21.67;15.32;;;;;;;;;;5076767;28;20047;-70
2021/11/17 04:49:03;;;;;;;20.92;14.98;;;;;;;;;;5081829;28;20027;-71
2021/11/17 04:51:49;;;;;;;24.50;16.13;;;;;;;;;;5096468;28;20051;-72
2021/11/17 04:54:33;;;;;;;25.13;18.48;;;;;;;;;;5063015;28;20032;-72
2021/11/17 04:56:59;;;;;;;21.50;15.98;;;;;;;;;;5096466;28;20031;-69
2021/11/17 04:59:41;;;;;;;23.25;16.95;;;;;;;;;;5114673;28;20024;-70
2021/11/17 05:02:11;;;;;;;21.65;15.43;;;;;;;;;;5114381;28;20102;-72
2021/11/17 05:04:43;;;;;;;21.85;15.77;;;;;;;;;;5114247;28;20019;-69
2021/11/17 05:07:24;;;;;;;23.20;15.35;;;;;;;;;;5114532;28;20028;-71
2021/11/17 05:10:03;;;;;;;24.08;15.27;;;;;;;;;;5095971;28;20436;-71
2021/11/17 05:12:42;;;;;;;20.33;15.15;;;;;;;;;;5079271;28;20462;-71
2021/11/17 05:15:08;;;;;;;21.55;15.35;;;;;;;;;;5114358;28;20016;-70
2021/11/17 05:17:40;;;;;;;24.98;16.90;;;;;;;;;;5114323;28;20080;-70
2021/11/17 05:20:06;;;;;;;24.80;17.60;;;;;;;;;;5113723;28;20027;-71
2021/11/17 05:22:48;;;;;;;21.58;15.35;;;;;;;;;;5114268;28;20103;-70
2021/11/17 05:25:23;;;;;;;20.83;15.10;;;;;;;;;;5114171;28;20020;-71
2021/11/17 05:27:58;;;;;;;22.55;16.48;;;;;;;;;;5096022;28;20024;-71
2021/11/17 05:30:24;;;;;;;25.60;17.15;;;;;;;;;;5114037;28;20023;-72
2021/11/17 05:32:53;;;;;;;19.65;14.65;;;;;;;;;;5113949;28;20448;-74
2021/11/17 05:35:32;;;;;;;20.83;15.30;;;;;;;;;;5095480;28;20020;-71
2021/11/17 05:38:04;;;;;;;21.80;14.32;;;;;;;;;;5095756;28;20016;-70
2021/11/17 05:40:39;;;;;;;21.88;15.90;;;;;;;;;;5113809;28;20035;-69
2021/11/17 05:43:25;;;;;;;20.50;14.98;;;;;;;;;;5095501;28;20023;-71
2021/11/17 05:46:21;;;;;;;19.35;14.32;;;;;;;;;;5096076;28;20436;-70
2021/11/17 05:48:53;;;;;;;22.63;16.10;;;;;;;;;;5086985;28;20029;-73
2021/11/17 05:51:19;;;;;;;19.27;14.70;;;;;;;;;;5093076;28;20028;-71
2021/11/17 05:53:48;;;;;;;24.42;16.52;;;;;;;;;;5075434;28;20029;-69
2021/11/17 05:56:14;;;;;;;20.38;15.90;;;;;;;;;;5093969;28;20132;-69
2021/11/17 05:58:40;;;;;;;18.70;14.15;;;;;;;;;;5093869;28;20024;-70
2021/11/17 06:01:24;;;;;;;22.02;15.80;;;;;;;;;;5074782;28;20421;-71
2021/11/17 06:04:00;;;;;;;22.35;15.30;;;;;;;;;;5092846;28;20105;-73
2021/11/17 06:06:26;;;;;;;21.83;15.85;;;;;;;;;;5092884;28;20024;-74
2021/11/17 06:08:55;;;;;;;24.45;15.15;;;;;;;;;;5092869;28;20012;-73
2021/11/17 06:11:25;;;;;;;20.38;14.60;;;;;;;;;;5092784;28;20502;-75
2021/11/17 06:13:51;;;;;;;20.77;14.05;;;;;;;;;;5092653;28;20016;-74
2021/11/17 06:16:17;;;;;;;20.45;14.57;;;;;;;;;;5092716;28;20020;-68
2021/11/17 06:18:44;;;;;;;20.05;15.52;;;;;;;;;;5092874;28;20478;-72
2021/11/17 06:21:11;;;;;;;21.48;15.82;;;;;;;;;;5092667;28;20032;-70
2021/11/17 06:23:41;;;;;;;21.27;14.73;;;;;;;;;;5092675;28;20016;-67
2021/11/17 06:26:09;;;;;;;18.20;13.27;;;;;;;;;;5092610;28;20027;-67
2021/11/17 06:28:35;;;;;;;19.27;13.98;;;;;;;;;;5092584;28;20478;-75
2021/11/17 06:31:01;;;;;;;18.27;13.27;;;;;;;;;;5091698;28;20077;-74
2021/11/17 06:33:27;;;;;;;18.63;13.43;;;;;;;;;;5092624;28;20047;-73
2021/11/17 06:35:53;;;;;;;21.20;14.55;;;;;;;;;;5092247;28;20020;-75
2021/11/17 06:38:20;;;;;;;21.17;13.70;;;;;;;;;;5090778;28;20051;-73
2021/11/17 06:40:47;;;;;;;20.58;14.40;;;;;;;;;;5092012;28;20078;-73
2021/11/17 06:43:13;;;;;;;18.50;14.13;;;;;;;;;;5092128;28;20027;-74
2021/11/17 06:45:39;;;;;;;18.13;13.23;;;;;;;;;;5091942;28;20024;-73
2021/11/17 06:48:06;;;;;;;17.55;13.65;;;;;;;;;;5092036;28;20387;-75
2021/11/17 06:50:33;;;;;;;20.15;13.88;;;;;;;;;;5091763;28;20024;-75
2021/11/17 06:52:59;;;;;;;18.52;13.18;;;;;;;;;;5092239;28;20098;-71
2021/11/17 06:55:26;;;;;;;17.33;12.18;;;;;;;;;;5092284;28;20378;-75
2021/11/17 06:57:52;;;;;;;22.77;15.13;;;;;;;;;;5092117;28;20099;-70
2021/11/17 07:00:20;;;;;;;19.90;13.43;;;;;;;;;;5091955;28;20032;-71
2021/11/17 07:02:46;;;;;;;19.00;13.68;;;;;;;;;;5091777;28;20030;-68
2021/11/17 07:05:12;;;;;;;19.05;13.93;;;;;;;;;;5091771;28;20499;-71
2021/11/17 07:07:39;;;;;;;18.95;13.73;;;;;;;;;;5091891;28;20495;-70
2021/11/17 07:10:06;;;;;;;18.88;13.65;;;;;;;;;;5091618;28;20024;-70
2021/11/17 07:12:32;;;;;;;20.40;13.95;;;;;;;;;;5091907;28;20020;-71
2021/11/17 07:14:58;;;;;;;17.70;13.75;;;;;;;;;;5091775;28;20008;-72
2021/11/17 07:17:24;;;;;;;20.98;14.20;;;;;;;;;;5091744;28;20505;-71
2021/11/17 07:19:50;;;;;;;22.77;14.10;;;;;;;;;;5073398;28;20069;-70
2021/11/17 07:22:17;;;;;;;21.17;14.20;;;;;;;;;;5091745;28;20032;-67
2021/11/17 07:24:43;;;;;;;19.80;13.75;;;;;;;;;;5091662;28;20104;-68
2021/11/17 07:27:12;;;;;;;19.33;13.93;;;;;;;;;;5091609;28;20070;-69
2021/11/17 07:29:39;;;;;;;18.15;14.35;;;;;;;;;;5073683;28;20474;-71
2021/11/17 07:32:05;;;;;;;19.73;13.70;;;;;;;;;;5091716;28;20024;-70
2021/11/17 07:34:31;;;;;;;18.38;14.10;;;;;;;;;;5092183;28;20360;-70
2021/11/17 07:36:57;;;;;;;19.33;13.25;;;;;;;;;;5092640;28;20308;-71
2021/11/17 07:39:23;;;;;;;19.33;14.77;;;;;;;;;;5092386;28;20052;-72
2021/11/17 07:41:51;;;;;;;20.00;14.10;;;;;;;;;;5093935;28;20020;-71
2021/11/17 07:44:17;;;;;;;16.67;12.80;;;;;;;;;;5099189;28;20020;-71
2021/11/17 07:46:44;;;;;;;20.27;14.15;;;;;;;;;;5098793;28;20359;-72
2021/11/17 07:49:11;;;;;;;18.35;13.90;;;;;;;;;;5106262;27;20097;-72
2021/11/17 07:51:37;;;;;;;19.40;14.38;;;;;;;;;;5118180;28;20047;-73
2021/11/17 07:54:03;;;;;;;18.85;15.35;;;;;;;;;;5118251;28;20024;-71
2021/11/17 07:56:29;;;;;;;17.75;13.60;;;;;;;;;;5118410;27;20034;-72
2021/11/17 07:58:55;;;;;;;17.95;13.52;;;;;;;;;;5100048;28;20024;-71
2021/11/17 08:01:22;;;;;;;18.90;14.73;;;;;;;;;;5117981;27;20097;-71
2021/11/17 08:03:48;;;;;;;55.13;16.17;;;;;;;;;;5118003;27;20474;-71
2021/11/17 08:06:17;;;;;;;36.78;15.00;;;;;;;;;;5118223;28;20055;-72
2021/11/17 08:08:43;;;;;;;27.45;14.07;;;;;;;;;;5109560;28;20475;-69
2021/11/17 08:11:11;;;;;;;24.45;15.88;;;;;;;;;;5097541;28;20043;-71
2021/11/17 08:13:37;;;;;;;22.30;14.88;;;;;;;;;;5097620;28;20475;-72
2021/11/17 08:16:04;;;;;;;22.20;15.27;;;;;;;;;;5079376;28;20028;-73
2021/11/17 08:18:30;;;;;;;21.65;16.65;;;;;;;;;;5097595;28;20020;-74
2021/11/17 08:20:56;;;;;;;16.60;12.35;;;;;;;;;;5097550;28;20548;-68
2021/11/17 08:23:22;;;;;;;22.13;15.50;;;;;;;;;;5097973;28;20501;-71
2021/11/17 08:25:48;;;;;;;22.92;15.40;;;;;;;;;;5097591;28;20028;-72
2021/11/17 08:28:14;;;;;;;21.55;15.00;;;;;;;;;;5097568;28;20123;-73
2021/11/17 08:30:41;;;;;;;21.25;14.85;;;;;;;;;;5097484;28;20024;-73
2021/11/17 08:33:08;;;;;;;22.20;16.08;;;;;;;;;;5097608;28;20536;-73
2021/11/17 08:35:35;;;;;;;20.38;15.05;;;;;;;;;;5097494;28;20056;-73
2021/11/17 08:38:01;;;;;;;21.60;15.60;;;;;;;;;;5097460;28;20537;-73
2021/11/17 08:40:29;;;;;;;24.00;17.10;;;;;;;;;;5097401;28;20054;-73
2021/11/17 08:42:55;;;;;;;20.00;15.50;;;;;;;;;;5079475;28;20034;-73
2021/11/17 08:45:22;;;;;;;23.40;15.65;;;;;;;;;;5097502;28;20043;-73
2021/11/17 08:47:49;;;;;;;19.05;13.75;;;;;;;;;;5097070;28;20081;-71
2021/11/17 08:50:17;;;;;;;20.92;14.43;;;;;;;;;;5114895;28;20016;-73
2021/11/17 08:52:44;;;;;;;20.70;14.80;;;;;;;;;;5117975;28;20081;-72
2021/11/17 08:55:10;;;;;;;22.10;15.07;;;;;;;;;;5113876;28;20463;-72
2021/11/17 08:57:36;;;;;;;22.50;15.05;;;;;;;;;;5114585;28;20020;-72
2021/11/17 09:00:05;;;;;;;19.02;14.52;;;;;;;;;;5114261;28;20031;-73
2021/11/17 09:02:31;;;;;;;22.50;15.85;;;;;;;;;;5114508;28;20023;-73
2021/11/17 09:04:57;;;;;;;21.95;15.18;;;;;;;;;;5096219;28;20059;-71
2021/11/17 09:07:23;;;;;;;21.20;15.05;;;;;;;;;;5114439;28;20019;-71
2021/11/17 09:09:49;;;;;;;17.60;12.93;;;;;;;;;;5114156;28;20016;-70
2021/11/17 09:12:15;;;;;;;19.92;14.63;;;;;;;;;;5114286;28;20084;-71
2021/11/17 09:14:41;;;;;;;23.35;14.45;;;;;;;;;;5114000;28;20016;-70
2021/11/17 09:17:07;;;;;;;20.02;14.07;;;;;;;;;;5114060;28;20048;-71
2021/11/17 09:19:34;;;;;;;21.50;15.00;;;;;;;;;;5095610;28;20500;-71
2021/11/17 09:22:01;;;;;;;18.40;13.35;;;;;;;;;;5095759;28;20385;-72
2021/11/17 09:24:27;;;;;;;20.90;14.55;;;;;;;;;;5113834;28;20023;-72
2021/11/17 09:26:53;;;;;;;18.23;13.35;;;;;;;;;;5113938;28;20020;-72
2021/11/17 09:29:19;;;;;;;30.17;14.85;;;;;;;;;;5114127;28;20016;-71
2021/11/17 09:31:46;;;;;;;32.60;14.32;;;;;;;;;;5108804;28;20046;-71
2021/11/17 09:34:13;;;;;;;20.83;13.18;;;;;;;;;;5092633;28;20030;-72
2021/11/17 09:36:40;;;;;;;22.48;14.60;;;;;;;;;;5113046;28;20103;-72
2021/11/17 09:39:07;;;;;;;22.83;14.90;;;;;;;;;;5080205;28;20040;-71
2021/11/17 09:41:42;;;;;;;23.30;15.38;;;;;;;;;;5092527;28;20529;-71
2021/11/17 09:44:19;;;;;;;22.70;16.10;;;;;;;;;;5074429;28;20103;-72
2021/11/17 09:46:47;;;;;;;17.88;13.60;;;;;;;;;;5074648;28;20119;-72
2021/11/17 09:49:19;;;;;;;31.77;16.27;;;;;;;;;;5101818;28;20016;-72
2021/11/17 09:51:47;;;;;;;34.05;17.13;;;;;;;;;;5094538;28;20034;-71
2021/11/17 09:54:19;;;;;;;30.75;17.05;;;;;;;;;;5092375;28;20059;-70
2021/11/17 09:56:50;;;;;;;35.30;16.20;;;;;;;;;;5092641;28;20015;-71
2021/11/17 09:59:37;;;;;;;31.48;17.27;;;;;;;;;;5076914;28;20111;-73
2021/11/17 10:02:10;;;;;;;25.05;15.73;;;;;;;;;;5094748;28;20040;-71
2021/11/17 10:04:43;;;;;;;24.55;15.57;;;;;;;;;;5113420;28;20016;-75
2021/11/17 10:10:43;;;;;;;26.90;15.68;;;;;;;;;;5113333;28;20018;-73
2021/11/17 10:13:08;;;;;;;24.13;14.75;;;;;;;;;;5112770;28;20039;-71
2021/11/17 10:15:36;;;;;;;24.15;15.68;;;;;;;;;;5094654;28;20023;-73
2021/11/17 10:18:25;;;;;;;22.75;14.57;;;;;;;;;;5094863;28;20607;-72
2021/11/17 10:20:54;;;;;;;24.98;15.25;;;;;;;;;;5096845;28;20052;-73
2021/11/17 10:23:23;;;;;;;20.80;13.77;;;;;;;;;;5112924;28;20106;-71
2021/11/17 10:25:57;;;;;;;22.27;13.73;;;;;;;;;;5112607;28;20023;-71
2021/11/17 10:28:25;;;;;;;24.70;14.35;;;;;;;;;;5112845;28;20459;-72
2021/11/17 10:30:51;;;;;;;19.98;12.85;;;;;;;;;;5112767;28;20053;-71
2021/11/17 10:33:24;;;;;;;19.20;12.90;;;;;;;;;;5112439;28;20471;-71
2021/11/17 10:36:01;;;;;;;18.67;11.90;;;;;;;;;;5112180;28;20042;-71
2021/11/17 10:38:32;;;;;;;20.35;13.07;;;;;;;;;;5112375;28;20026;-74
2021/11/17 10:41:03;;;;;;;19.58;13.18;;;;;;;;;;5112487;28;20043;-72
2021/11/17 10:43:34;;;;;;;20.83;12.45;;;;;;;;;;5112337;28;20794;-76
2021/11/17 10:46:08;;;;;;;18.00;12.35;;;;;;;;;;5112382;28;20076;-75
2021/11/17 10:48:49;;;;;;;16.17;11.60;;;;;;;;;;5110891;28;20022;-73
2021/11/17 10:51:15;;;;;;;18.45;12.32;;;;;;;;;;5111445;28;20673;-71
2021/11/17 10:53:42;;;;;;;19.98;10.95;;;;;;;;;;5112022;28;20493;-71
2021/11/17 10:56:13;;;;;;;18.15;12.15;;;;;;;;;;5112181;28;20505;-71
2021/11/17 10:58:41;;;;;;;19.92;11.48;;;;;;;;;;5094049;28;20479;-73
2021/11/17 11:01:13;;;;;;;16.88;10.57;;;;;;;;;;5112012;28;20041;-73
2021/11/17 11:03:42;;;;;;;14.80;9.77;;;;;;;;;;5111786;28;20509;-70
2021/11/17 11:06:12;;;;;;;15.55;9.13;;;;;;;;;;5111980;28;20024;-70
2021/11/17 11:08:43;;;;;;;14.00;9.48;;;;;;;;;;5111644;28;20055;-70
2021/11/17 11:11:10;;;;;;;15.40;9.88;;;;;;;;;;5111960;28;20069;-70
2021/11/17 11:13:40;;;;;;;15.07;9.50;;;;;;;;;;5111473;28;20020;-70
2021/11/17 11:16:10;;;;;;;19.35;10.07;;;;;;;;;;5111318;28;20035;-73
2021/11/17 11:18:48;;;;;;;18.27;10.23;;;;;;;;;;5111491;28;20352;-74
2021/11/17 11:21:16;;;;;;;14.65;8.32;;;;;;;;;;5111550;28;20061;-73
2021/11/17 11:23:54;;;;;;;13.38;8.65;;;;;;;;;;5111517;28;20084;-72
2021/11/17 11:26:23;;;;;;;13.60;9.27;;;;;;;;;;5111780;28;20030;-73
2021/11/17 11:28:49;;;;;;;13.93;8.95;;;;;;;;;;5092863;28;20185;-73
2021/11/17 11:31:42;;;;;;;12.68;8.82;;;;;;;;;;5104893;28;20616;-73
2021/11/17 11:34:08;;;;;;;14.50;8.75;;;;;;;;;;5087671;28;20072;-74
2021/11/17 11:36:43;;;;;;;14.45;8.40;;;;;;;;;;5091809;28;20063;-71
2021/11/17 11:39:09;;;;;;;12.98;9.13;;;;;;;;;;5091433;28;20036;-73
2021/11/17 11:41:38;;;;;;;13.30;8.63;;;;;;;;;;5091364;28;20050;-72
2021/11/17 11:44:26;;;;;;;15.40;8.65;;;;;;;;;;5073271;28;20028;-73
2021/11/17 11:46:58;;;;;;;14.32;9.57;;;;;;;;;;5091538;28;20545;-73
2021/11/17 11:49:42;;;;;;;13.85;8.98;;;;;;;;;;5091338;28;20035;-72
2021/11/17 11:52:14;;;;;;;16.45;10.40;;;;;;;;;;5091487;28;20055;-71
2021/11/17 11:54:56;;;;;;;24.38;10.00;;;;;;;;;;5073278;28;20032;-71
2021/11/17 11:57:41;;;;;;;20.45;10.65;;;;;;;;;;5091433;28;20020;-70
2021/11/17 12:00:25;;;;;;;24.42;10.65;;;;;;;;;;5090648;28;20044;-70
2021/11/17 12:02:59;;;;;;;18.80;10.38;;;;;;;;;;5091361;28;20116;-71
2021/11/17 12:05:31;;;;;;;23.02;10.55;;;;;;;;;;5091282;28;20032;-72
2021/11/17 12:08:00;;;;;;;20.73;10.30;;;;;;;;;;5091276;28;20428;-69
2021/11/17 12:10:28;;;;;;;34.60;10.45;;;;;;;;;;5091109;28;20035;-66
2021/11/17 12:12:55;;;;;;;28.38;10.85;;;;;;;;;;5091256;28;20038;-68
2021/11/17 12:15:21;;;;;;;33.00;9.30;;;;;;;;;;5090826;28;20468;-68
2021/11/17 12:17:47;;;;;;;25.98;11.23;;;;;;;;;;5089954;28;20103;-69
2021/11/17 12:20:18;;;;;;;23.10;9.55;;;;;;;;;;5090070;28;20028;-70
2021/11/17 12:22:47;;;;;;;21.05;10.10;;;;;;;;;;5090953;28;20021;-66
2021/11/17 12:25:21;;;;;;;21.17;8.90;;;;;;;;;;5091052;28;20465;-67
2021/11/17 12:27:49;;;;;;;17.05;9.45;;;;;;;;;;5072824;28;20405;-68
2021/11/17 12:30:19;;;;;;;17.10;7.95;;;;;;;;;;5075930;28;20031;-66
2021/11/17 12:32:51;;;;;;;15.65;7.68;;;;;;;;;;5094901;28;20024;-66
2021/11/17 12:35:35;;;;;;;18.08;8.15;;;;;;;;;;5094881;28;20475;-68
2021/11/17 12:38:06;;;;;;;20.88;8.32;;;;;;;;;;5094840;28;20110;-67
2021/11/17 12:40:32;;;;;;;16.95;6.93;;;;;;;;;;5094607;28;20040;-69
2021/11/17 12:42:59;;;;;;;18.85;8.40;;;;;;;;;;5094545;28;20024;-70
2021/11/17 12:45:30;;;;;;;15.52;7.20;;;;;;;;;;5094524;28;20024;-70
2021/11/17 12:47:59;;;;;;;12.88;7.63;;;;;;;;;;5094644;28;20024;-68
2021/11/17 12:50:33;;;;;;;17.45;8.05;;;;;;;;;;5094254;28;20502;-67
2021/11/17 12:53:20;;;;;;;14.75;8.70;;;;;;;;;;5076309;28;20115;-70
2021/11/17 12:55:48;;;;;;;14.27;7.47;;;;;;;;;;5094449;28;20027;-67
2021/11/17 12:58:33;;;;;;;15.68;8.30;;;;;;;;;;5094523;28;20024;-69
2021/11/17 13:01:14;;;;;;;14.63;7.25;;;;;;;;;;5094352;28;20379;-67
2021/11/17 13:03:57;;;;;;;15.20;7.97;;;;;;;;;;5076157;28;20586;-70
2021/11/17 13:06:55;;;;;;;15.68;7.93;;;;;;;;;;5094401;28;20077;-70
2021/11/17 13:09:23;;;;;;;12.45;7.03;;;;;;;;;;5049376;28;20059;-69
2021/11/17 13:11:49;;;;;;;15.00;7.70;;;;;;;;;;5094050;28;20020;-70
2021/11/17 13:14:23;;;;;;;12.10;7.25;;;;;;;;;;5075968;28;20207;-70
2021/11/17 13:16:50;;;;;;;12.25;7.25;;;;;;;;;;5093867;28;20471;-71
2021/11/17 13:19:18;;;;;;;13.07;8.30;;;;;;;;;;5093898;28;20115;-69
2021/11/17 13:21:51;;;;;;;10.90;6.72;;;;;;;;;;5093855;28;20043;-71
2021/11/17 13:24:17;;;;;;;12.13;7.60;;;;;;;;;;5094068;28;20024;-69
2021/11/17 13:26:50;;;;;;;16.08;7.95;;;;;;;;;;5093819;28;20500;-68
2021/11/17 13:29:18;;;;;;;13.80;8.40;;;;;;;;;;5093733;28;20487;-70
2021/11/17 13:31:45;;;;;;;12.18;7.53;;;;;;;;;;5093782;28;20099;-71
2021/11/17 13:34:12;;;;;;;11.38;7.10;;;;;;;;;;5093768;28;20020;-70
2021/11/17 13:36:40;;;;;;;12.52;7.80;;;;;;;;;;5093662;28;20024;-70
2021/11/17 13:39:07;;;;;;;12.55;7.38;;;;;;;;;;5093387;28;20078;-70
2021/11/17 13:41:34;;;;;;;10.93;7.18;;;;;;;;;;5093186;28;20382;-70
2021/11/17 13:44:01;;;;;;;11.73;7.13;;;;;;;;;;5093438;28;20020;-68
2021/11/17 13:46:27;;;;;;;15.18;7.30;;;;;;;;;;5093355;28;20035;-68
2021/11/17 13:48:53;;;;;;;13.13;7.05;;;;;;;;;;5093171;28;20020;-69
2021/11/17 13:51:21;;;;;;;12.38;6.90;;;;;;;;;;5075269;28;20020;-69
2021/11/17 13:53:48;;;;;;;11.68;7.30;;;;;;;;;;5093563;28;20107;-70
2021/11/17 13:56:16;;;;;;;11.48;6.30;;;;;;;;;;5093434;28;20034;-70
2021/11/17 13:58:42;;;;;;;9.57;6.60;;;;;;;;;;5074978;28;20593;-69
2021/11/17 14:01:10;;;;;;;12.40;6.97;;;;;;;;;;5092531;28;20044;-69
2021/11/17 14:03:36;;;;;;;10.15;6.03;;;;;;;;;;5074908;28;20062;-69
2021/11/17 14:06:05;;;;;;;11.23;6.60;;;;;;;;;;5093169;28;20028;-67
2021/11/17 14:08:32;;;;;;;10.82;6.93;;;;;;;;;;5093043;28;20079;-67
2021/11/17 14:10:59;;;;;;;9.20;5.95;;;;;;;;;;5093004;28;20029;-70
2021/11/17 14:13:25;;;;;;;9.50;6.40;;;;;;;;;;5092946;28;20451;-66
2021/11/17 14:15:52;;;;;;;11.05;6.63;;;;;;;;;;5074616;28;20027;-69
2021/11/17 14:18:18;;;;;;;11.63;6.50;;;;;;;;;;5092974;28;20414;-66
2021/11/17 14:20:45;;;;;;;9.88;5.90;;;;;;;;;;5074623;28;20040;-70
2021/11/17 14:23:12;;;;;;;10.13;6.40;;;;;;;;;;5096478;28;20039;-72
2021/11/17 14:25:38;;;;;;;12.38;6.68;;;;;;;;;;5109562;28;20102;-69
2021/11/17 14:28:06;;;;;;;11.50;6.68;;;;;;;;;;5112210;28;20015;-70
2021/11/17 14:30:45;;;;;;;10.88;6.57;;;;;;;;;;5112124;28;20107;-69
2021/11/17 14:33:14;;;;;;;11.60;7.15;;;;;;;;;;5112091;28;20683;-70
2021/11/17 14:35:40;;;;;;;11.68;7.10;;;;;;;;;;5111890;28;20102;-66
2021/11/17 14:38:10;;;;;;;10.85;7.35;;;;;;;;;;5111830;28;20032;-69
2021/11/17 14:40:36;;;;;;;12.05;6.85;;;;;;;;;;5111633;28;20039;-68
2021/11/17 14:43:02;;;;;;;9.10;6.28;;;;;;;;;;5112263;28;20024;-69
2021/11/17 14:45:29;;;;;;;10.65;6.47;;;;;;;;;;5111791;28;20030;-67
2021/11/17 14:47:55;;;;;;;9.70;6.38;;;;;;;;;;5111626;28;20383;-67
2021/11/17 14:50:22;;;;;;;12.50;6.97;;;;;;;;;;5093207;28;20031;-69
2021/11/17 14:52:49;;;;;;;11.23;7.05;;;;;;;;;;5091585;28;20020;-69
2021/11/17 14:55:17;;;;;;;12.57;6.32;;;;;;;;;;5092286;28;20020;-68
2021/11/17 14:57:43;;;;;;;12.77;6.97;;;;;;;;;;5091986;28;20431;-69
2021/11/17 15:00:11;;;;;;;11.10;6.70;;;;;;;;;;5091846;28;20031;-68
2021/11/17 15:02:37;;;;;;;13.27;7.05;;;;;;;;;;5091931;28;20027;-68
2021/11/17 15:05:04;;;;;;;10.43;6.95;;;;;;;;;;5091665;28;20047;-68
2021/11/17 15:07:30;;;;;;;11.10;6.38;;;;;;;;;;5091733;28;20034;-69
2021/11/17 15:09:56;;;;;;;12.32;7.25;;;;;;;;;;5091602;28;20070;-67
2021/11/17 15:12:26;;;;;;;10.93;6.65;;;;;;;;;;5091754;28;20020;-68
2021/11/17 15:14:52;;;;;;;12.70;7.50;;;;;;;;;;5073790;28;20024;-68
2021/11/17 15:17:18;;;;;;;14.32;7.55;;;;;;;;;;5091906;28;20024;-68
2021/11/17 15:19:45;;;;;;;12.95;7.22;;;;;;;;;;5091640;28;20020;-68
2021/11/17 15:22:12;;;;;;;13.45;7.05;;;;;;;;;;5091557;28;20032;-66
2021/11/17 15:24:39;;;;;;;13.25;8.07;;;;;;;;;;5091778;28;20099;-64
2021/11/17 15:27:08;;;;;;;11.57;7.38;;;;;;;;;;5091575;28;20501;-69
2021/11/17 15:29:35;;;;;;;15.10;7.63;;;;;;;;;;5091615;28;20028;-66
2021/11/17 15:32:01;;;;;;;14.25;7.60;;;;;;;;;;5092073;28;20417;-68
2021/11/17 15:34:27;;;;;;;15.38;7.57;;;;;;;;;;5091339;28;20046;-71
2021/11/17 15:36:54;;;;;;;12.43;7.32;;;;;;;;;;5098686;28;20028;-69
2021/11/17 15:39:20;;;;;;;13.25;7.38;;;;;;;;;;5093101;28;20040;-66
2021/11/17 15:41:46;;;;;;;20.33;11.70;;;;;;;;;;5094680;28;20047;-70
2021/11/17 15:44:13;;;;;;;22.55;13.57;;;;;;;;;;5110585;28;20028;-66
2021/11/17 15:46:50;;;;;;;23.38;11.95;;;;;;;;;;5111347;28;20046;-67
2021/11/17 15:49:16;;;;;;;17.70;10.27;;;;;;;;;;5110956;28;20117;-66
2021/11/17 15:51:44;;;;;;;18.23;9.23;;;;;;;;;;5092940;28;20012;-69
2021/11/17 15:54:10;;;;;;;17.60;9.90;;;;;;;;;;5105098;28;20471;-69
2021/11/17 15:56:38;;;;;;;18.17;10.32;;;;;;;;;;5090652;28;20085;-70
2021/11/17 15:59:04;;;;;;;14.45;9.10;;;;;;;;;;5090796;28;20020;-71
2021/11/17 16:01:30;;;;;;;15.90;9.27;;;;;;;;;;5091132;28;20490;-66
2021/11/17 16:03:57;;;;;;;17.73;9.18;;;;;;;;;;5075337;28;20077;-69
2021/11/17 16:06:26;;;;;;;19.77;9.50;;;;;;;;;;5094660;28;20024;-69
2021/11/17 16:08:52;;;;;;;20.88;9.40;;;;;;;;;;5094579;28;20428;-70
2021/11/17 16:11:18;;;;;;;15.05;8.30;;;;;;;;;;5094295;28;20475;-70
2021/11/17 16:13:44;;;;;;;14.75;9.27;;;;;;;;;;5094440;28;20418;-68
2021/11/17 16:16:11;;;;;;;15.68;9.90;;;;;;;;;;5094561;28;20034;-70
2021/11/17 16:18:37;;;;;;;15.15;8.68;;;;;;;;;;5100473;28;20047;-68
2021/11/17 16:21:06;;;;;;;15.10;8.10;;;;;;;;;;5096847;28;20135;-70
2021/11/17 16:26:12;;;;;;;16.02;8.52;;;;;;;;;;5115454;28;20041;-66
2021/11/17 16:28:40;;;;;;;12.52;8.20;;;;;;;;;;5114564;28;20015;-69
2021/11/17 16:31:07;;;;;;;13.73;8.65;;;;;;;;;;5104178;28;20050;-69
2021/11/17 16:33:33;;;;;;;13.27;8.30;;;;;;;;;;5094313;28;20034;-69
2021/11/17 16:36:01;;;;;;;13.57;8.30;;;;;;;;;;5098076;28;20068;-68
2021/11/17 16:38:27;;;;;;;17.02;9.07;;;;;;;;;;5114495;28;20495;-71
2021/11/17 16:40:54;;;;;;;14.10;7.63;;;;;;;;;;5096265;28;20039;-70
2021/11/17 16:43:21;;;;;;;13.20;8.40;;;;;;;;;;5114454;28;20019;-64
2021/11/17 16:45:47;;;;;;;14.35;8.52;;;;;;;;;;5114320;28;20133;-71
2021/11/17 16:48:13;;;;;;;17.50;9.18;;;;;;;;;;5114413;28;20015;-70
2021/11/17 16:50:40;;;;;;;11.80;7.65;;;;;;;;;;5114468;28;20034;-70
2021/11/17 16:53:07;;;;;;;12.73;7.95;;;;;;;;;;5113582;28;20023;-65
2021/11/17 16:55:34;;;;;;;14.18;8.20;;;;;;;;;;5113023;28;20031;-65
2021/11/17 16:58:01;;;;;;;14.90;8.65;;;;;;;;;;5094864;28;20516;-64
2021/11/17 17:00:29;;;;;;;15.52;8.13;;;;;;;;;;5113292;28;20514;-69
2021/11/17 17:02:55;;;;;;;14.55;7.80;;;;;;;;;;5114437;28;20058;-68
2021/11/17 17:05:23;;;;;;;20.15;8.05;;;;;;;;;;5114121;28;20024;-66
2021/11/17 17:07:49;;;;;;;12.80;8.23;;;;;;;;;;5114113;28;20102;-69
2021/11/17 17:10:20;;;;;;;13.25;7.43;;;;;;;;;;5102284;28;20054;-66